createdAt,value
2018-01-24T00:01:37.940Z,6.00
2018-01-24T00:04:05.922Z,6.00
2018-01-24T00:06:33.944Z,6.00
2018-01-24T00:09:01.966Z,6.00
2018-01-24T00:11:29.968Z,6.00
2018-01-24T00:13:57.968Z,6.00
2018-01-24T00:16:25.980Z,6.00
2018-01-24T00:18:53.980Z,5.90
2018-01-24T00:21:22.743Z,6.00
2018-01-24T00:23:50.736Z,5.90
2018-01-24T00:26:18.736Z,6.00
2018-01-24T00:28:46.736Z,5.90
2018-01-24T00:31:15.513Z,5.90
2018-01-24T00:33:43.492Z,5.80
2018-01-24T00:36:11.502Z,5.90
2018-01-24T00:38:40.263Z,5.90
2018-01-24T00:41:08.281Z,5.90
2018-01-24T00:43:37.123Z,5.90
2018-01-24T00:46:05.911Z,5.80
2018-01-24T00:48:33.920Z,5.80
2018-01-24T00:51:01.930Z,5.80
2018-01-24T00:53:29.940Z,5.80
2018-01-24T00:55:58.709Z,5.70
2018-01-24T00:58:26.708Z,5.70
2018-01-24T01:00:54.723Z,5.80
2018-01-24T01:03:22.696Z,5.80
2018-01-24T01:05:50.694Z,5.90
2018-01-24T01:08:18.691Z,5.90
2018-01-24T01:10:46.676Z,5.80
2018-01-24T01:13:14.683Z,5.80
2018-01-24T01:15:42.683Z,5.80
2018-01-24T01:18:10.668Z,5.80
2018-01-24T01:20:39.478Z,5.80
2018-01-24T01:23:08.235Z,5.80
2018-01-24T01:25:36.237Z,5.80
2018-01-24T01:28:04.236Z,5.80
2018-01-24T01:30:33.021Z,5.80
2018-01-24T01:33:01.008Z,5.70
2018-01-24T01:35:29.012Z,5.70
2018-01-24T01:37:57.791Z,5.70
2018-01-24T01:40:27.287Z,5.70
2018-01-24T01:42:55.288Z,5.70
2018-01-24T01:45:23.358Z,5.60
2018-01-24T01:47:51.400Z,5.60
2018-01-24T01:50:20.208Z,5.70
2018-01-24T01:52:48.273Z,5.60
2018-01-24T01:55:17.084Z,5.60
2018-01-24T01:57:45.881Z,5.60
2018-01-24T02:00:14.705Z,5.70
2018-01-24T02:02:42.739Z,5.60
2018-01-24T02:05:10.773Z,5.60
2018-01-24T02:07:38.822Z,5.70
2018-01-24T02:10:06.881Z,5.70
2018-01-24T02:12:34.916Z,5.70
2018-01-24T02:15:02.995Z,5.70
2018-01-24T02:17:31.047Z,5.80
2018-01-24T02:19:59.069Z,5.70
2018-01-24T02:22:27.107Z,5.70
2018-01-24T02:24:55.156Z,5.70
2018-01-24T02:27:23.184Z,5.70
2018-01-24T02:29:51.253Z,5.70
2018-01-24T02:32:19.329Z,5.80
2018-01-24T02:34:47.348Z,5.80
2018-01-24T02:37:16.173Z,5.80
2018-01-24T02:39:44.221Z,5.70
2018-01-24T02:42:12.246Z,5.80
2018-01-24T02:44:40.290Z,5.80
2018-01-24T02:47:08.348Z,5.80
2018-01-24T02:49:37.311Z,5.80
2018-01-24T02:52:05.361Z,5.80
2018-01-24T02:54:33.437Z,5.80
2018-01-24T02:57:02.256Z,5.80
2018-01-24T02:59:31.068Z,5.80
2018-01-24T03:01:59.863Z,5.80
2018-01-24T03:04:28.685Z,5.80
2018-01-24T03:06:56.731Z,5.80
2018-01-24T03:09:24.761Z,5.80
2018-01-24T03:11:52.799Z,7.10
2018-01-24T03:14:20.856Z,5.80
2018-01-24T03:16:48.888Z,5.80
2018-01-24T03:19:17.701Z,5.80
2018-01-24T03:21:45.757Z,5.70
2018-01-24T03:24:13.798Z,5.70
2018-01-24T03:26:41.844Z,5.70
2018-01-24T03:29:10.664Z,5.60
2018-01-24T03:31:38.700Z,5.60
2018-01-24T03:34:06.739Z,5.60
2018-01-24T03:36:34.801Z,5.70
2018-01-24T03:39:03.616Z,5.60
2018-01-24T03:41:31.712Z,5.60
2018-01-24T03:43:59.758Z,5.60
2018-01-24T03:46:28.545Z,5.60
2018-01-24T03:48:56.587Z,5.60
2018-01-24T03:51:24.636Z,5.70
2018-01-24T03:53:53.441Z,5.60
2018-01-24T03:56:22.249Z,5.60
2018-01-24T03:58:50.288Z,5.60
2018-01-24T04:01:18.316Z,5.70
2018-01-24T04:03:46.372Z,5.70
2018-01-24T04:06:14.416Z,5.70
2018-01-24T04:08:42.440Z,5.70
2018-01-24T04:11:11.273Z,5.60
2018-01-24T04:13:39.312Z,5.60
2018-01-24T04:16:07.347Z,5.60
2018-01-24T04:18:35.420Z,5.60
2018-01-24T04:21:04.233Z,5.60
2018-01-24T04:23:32.282Z,5.50
2018-01-24T04:26:00.329Z,5.60
2018-01-24T04:28:28.396Z,7.60
2018-01-24T04:30:56.436Z,5.60
2018-01-24T04:33:25.251Z,5.70
2018-01-24T04:35:54.066Z,5.70
2018-01-24T04:38:22.101Z,5.70
2018-01-24T04:40:50.143Z,5.70
2018-01-24T04:43:18.187Z,5.80
2018-01-24T04:45:46.980Z,5.80
2018-01-24T04:48:15.036Z,5.80
2018-01-24T04:50:43.081Z,5.80
2018-01-24T04:53:11.115Z,5.80
2018-01-24T04:55:39.167Z,5.90
2018-01-24T04:58:07.218Z,5.90
2018-01-24T05:00:36.021Z,5.90
2018-01-24T05:03:04.846Z,5.80
2018-01-24T05:05:32.888Z,5.80
2018-01-24T05:08:00.919Z,5.80
2018-01-24T05:10:29.008Z,5.80
2018-01-24T05:12:57.057Z,5.80
2018-01-24T05:15:25.852Z,5.80
2018-01-24T05:17:54.668Z,5.80
2018-01-24T05:20:41.465Z,5.80
2018-01-24T05:23:09.512Z,5.80
2018-01-24T05:25:37.556Z,5.80
2018-01-24T05:28:06.361Z,5.80
2018-01-24T05:30:35.165Z,5.80
2018-01-24T05:33:03.215Z,5.80
2018-01-24T05:35:31.276Z,5.80
2018-01-24T05:37:59.341Z,5.90
2018-01-24T05:40:27.383Z,5.90
2018-01-24T05:42:56.185Z,5.90
2018-01-24T05:45:24.992Z,5.90
2018-01-24T05:47:53.808Z,5.90
2018-01-24T05:52:02.432Z,5.90
2018-01-24T05:54:31.260Z,6.00
2018-01-24T05:56:59.764Z,6.00
2018-01-24T05:59:27.801Z,6.00
2018-01-24T06:01:55.843Z,6.10
2018-01-24T06:04:23.876Z,6.10
2018-01-24T06:06:52.700Z,6.20
2018-01-24T06:09:20.748Z,6.10
2018-01-24T06:11:48.773Z,6.20
2018-01-24T06:14:16.817Z,6.20
2018-01-24T06:16:44.860Z,6.20
2018-01-24T06:19:12.900Z,6.20
2018-01-24T06:21:41.696Z,6.20
2018-01-24T06:24:09.745Z,6.20
2018-01-24T06:26:37.792Z,6.30
2018-01-24T06:29:05.819Z,6.30
2018-01-24T06:31:33.892Z,6.30
2018-01-24T06:34:01.965Z,6.30
2018-01-24T06:36:29.997Z,6.30
2018-01-24T06:38:58.208Z,6.40
2018-01-24T06:41:26.252Z,6.30
2018-01-24T06:43:54.285Z,6.30
2018-01-24T06:46:22.328Z,6.30
2018-01-24T06:48:50.372Z,6.30
2018-01-24T06:51:18.393Z,6.40
2018-01-24T06:53:46.439Z,6.40
2018-01-24T06:56:14.459Z,6.40
2018-01-24T06:58:42.503Z,6.40
2018-01-24T07:01:10.552Z,6.40
2018-01-24T07:03:39.335Z,6.50
2018-01-24T07:06:07.379Z,6.40
2018-01-24T07:08:35.434Z,6.50
2018-01-24T07:11:03.456Z,6.50
2018-01-24T07:13:43.260Z,6.50
2018-01-24T07:16:12.076Z,6.50
2018-01-24T07:18:40.109Z,6.40
2018-01-24T07:21:08.153Z,8.60
2018-01-24T07:23:36.202Z,6.50
2018-01-24T07:26:04.256Z,6.50
2018-01-24T07:28:32.308Z,6.50
2018-01-24T07:31:00.347Z,6.50
2018-01-24T07:33:28.381Z,6.50
2018-01-24T07:35:56.436Z,6.60
2018-01-24T07:38:25.258Z,6.70
2018-01-24T07:40:53.280Z,6.60
2018-01-24T07:43:21.337Z,6.70
2018-01-24T07:45:49.383Z,6.70
2018-01-24T07:48:18.172Z,6.80
2018-01-24T07:50:47.020Z,6.80
2018-01-24T07:53:15.067Z,6.80
2018-01-24T07:55:43.860Z,6.90
2018-01-24T07:58:11.911Z,6.90
2018-01-24T08:00:39.956Z,6.90
2018-01-24T08:03:08.080Z,6.90
2018-01-24T08:05:36.120Z,6.90
2018-01-24T08:08:04.928Z,7.00
2018-01-24T08:10:32.992Z,6.90
2018-01-24T08:13:01.819Z,7.10
2018-01-24T08:15:29.862Z,7.00
2018-01-24T08:17:57.929Z,7.10
2018-01-24T08:20:25.968Z,7.10
2018-01-24T08:22:54.004Z,7.10
2018-01-24T08:25:23.563Z,7.30
2018-01-24T08:27:51.604Z,7.30
2018-01-24T08:30:19.624Z,7.30
2018-01-24T08:32:47.684Z,7.30
2018-01-24T08:35:15.724Z,7.40
2018-01-24T08:37:43.813Z,7.40
2018-01-24T08:40:12.599Z,7.50
2018-01-24T08:42:40.636Z,7.40
2018-01-24T08:45:08.652Z,7.50
2018-01-24T08:47:36.695Z,7.50
2018-01-24T08:50:04.763Z,7.50
2018-01-24T08:52:32.799Z,7.60
2018-01-24T08:55:00.874Z,7.70
2018-01-24T08:57:29.688Z,7.80
2018-01-24T08:59:57.720Z,7.80
2018-01-24T09:02:25.768Z,7.80
2018-01-24T09:04:53.795Z,7.90
2018-01-24T09:07:21.839Z,8.00
2018-01-24T09:09:49.879Z,8.00
2018-01-24T09:12:18.667Z,8.10
2018-01-24T09:14:46.711Z,8.10
2018-01-24T09:17:14.740Z,8.10
2018-01-24T09:19:42.788Z,8.20
2018-01-24T09:22:10.852Z,8.20
2018-01-24T09:24:38.881Z,8.30
2018-01-24T09:27:06.924Z,8.30
2018-01-24T09:29:35.002Z,8.40
2018-01-24T09:32:03.066Z,8.40
2018-01-24T09:34:31.880Z,8.50
2018-01-24T09:36:59.911Z,8.40
2018-01-24T09:39:27.964Z,8.40
2018-01-24T09:41:55.988Z,8.50
2018-01-24T09:44:24.035Z,8.60
2018-01-24T09:46:52.080Z,8.80
2018-01-24T09:49:20.864Z,9.10
2018-01-24T09:51:48.931Z,9.00
2018-01-24T09:54:16.960Z,9.20
2018-01-24T09:56:45.008Z,9.30
2018-01-24T09:59:13.047Z,9.40
2018-01-24T10:01:41.072Z,9.50
2018-01-24T10:04:09.164Z,9.50
2018-01-24T10:06:37.184Z,9.60
2018-01-24T10:09:05.267Z,9.60
2018-01-24T10:11:33.320Z,9.70
2018-01-24T10:14:02.140Z,10.00
2018-01-24T10:16:30.980Z,10.10
2018-01-24T10:18:59.008Z,10.00
2018-01-24T10:21:27.056Z,10.20
2018-01-24T10:23:55.112Z,10.40
2018-01-24T10:26:23.148Z,10.60
2018-01-24T10:28:51.192Z,10.70
2018-01-24T10:31:19.236Z,10.70
2018-01-24T10:33:48.047Z,10.80
2018-01-24T10:36:16.872Z,10.90
2018-01-24T10:38:44.904Z,10.80
2018-01-24T10:41:12.956Z,10.90
2018-01-24T10:43:40.987Z,11.00
2018-01-24T10:46:09.816Z,11.10
2018-01-24T10:48:37.855Z,11.00
2018-01-24T10:51:07.416Z,11.20
2018-01-24T10:53:35.476Z,11.20
2018-01-24T10:56:04.272Z,11.40
2018-01-24T10:58:33.100Z,11.50
2018-01-24T11:01:01.165Z,11.40
2018-01-24T11:03:29.248Z,11.50
2018-01-24T11:05:57.352Z,11.60
2018-01-24T11:08:25.388Z,11.70
2018-01-24T11:10:53.456Z,11.80
2018-01-24T11:13:21.500Z,11.90
2018-01-24T11:15:49.564Z,11.90
2018-01-24T11:18:18.356Z,12.00
2018-01-24T11:20:46.408Z,11.90
2018-01-24T11:23:14.433Z,12.10
2018-01-24T11:25:43.251Z,12.20
2018-01-24T11:28:11.296Z,12.10
2018-01-24T11:30:39.346Z,12.30
2018-01-24T11:33:07.392Z,12.30
2018-01-24T11:35:36.208Z,12.10
2018-01-24T11:38:04.252Z,12.00
2018-01-24T11:40:32.311Z,11.90
2018-01-24T11:43:00.357Z,11.90
2018-01-24T11:45:28.404Z,12.00
2018-01-24T11:47:56.459Z,12.00
2018-01-24T11:50:24.532Z,12.00
2018-01-24T11:52:52.612Z,12.00
2018-01-24T11:55:20.647Z,12.00
2018-01-24T11:57:48.691Z,12.10
2018-01-24T12:00:16.736Z,12.00
2018-01-24T12:02:44.784Z,12.00
2018-01-24T12:05:12.820Z,12.00
2018-01-24T12:07:40.890Z,12.30
2018-01-24T12:10:09.732Z,12.70
2018-01-24T12:12:37.755Z,12.70
2018-01-24T12:15:05.832Z,13.00
2018-01-24T12:17:33.888Z,13.10
2018-01-24T12:20:01.942Z,13.30
2018-01-24T12:22:30.016Z,13.50
2018-01-24T12:24:58.136Z,13.50
2018-01-24T12:27:26.904Z,13.80
2018-01-24T12:29:54.956Z,13.70
2018-01-24T12:32:23.008Z,13.90
2018-01-24T12:34:51.041Z,13.90
2018-01-24T12:37:19.869Z,14.10
2018-01-24T12:39:47.901Z,14.00
2018-01-24T12:42:15.951Z,14.30
2018-01-24T12:44:43.996Z,14.40
2018-01-24T12:47:12.804Z,14.60
2018-01-24T12:49:41.619Z,14.80
2018-01-24T12:52:09.669Z,14.70
2018-01-24T12:54:37.704Z,14.90
2018-01-24T12:57:05.768Z,15.00
2018-01-24T12:59:33.851Z,15.00
2018-01-24T13:02:01.920Z,15.00
2018-01-24T13:04:30.724Z,14.70
2018-01-24T13:06:59.564Z,14.40
2018-01-24T13:09:27.622Z,14.30
2018-01-24T13:11:55.643Z,14.10
2018-01-24T13:14:23.702Z,14.20
2018-01-24T13:16:51.756Z,14.40
2018-01-24T13:19:20.559Z,14.30
2018-01-24T13:21:49.385Z,14.10
2018-01-24T13:24:17.435Z,14.10
2018-01-24T13:26:45.475Z,14.10
2018-01-24T13:29:13.520Z,13.90
2018-01-24T13:31:42.331Z,13.70
2018-01-24T13:34:10.367Z,13.70
2018-01-24T13:36:38.417Z,13.80
2018-01-24T13:39:06.472Z,13.80
2018-01-24T13:41:35.277Z,13.70
2018-01-24T13:44:04.102Z,13.60
2018-01-24T13:46:32.161Z,13.50
2018-01-24T13:49:00.973Z,13.40
2018-01-24T13:51:29.034Z,13.30
2018-01-24T13:53:57.869Z,13.10
2018-01-24T13:56:25.904Z,13.00
2018-01-24T13:58:53.976Z,13.10
2018-01-24T14:01:22.036Z,13.10
2018-01-24T14:03:50.079Z,13.10
2018-01-24T14:06:18.188Z,13.00
2018-01-24T14:08:46.235Z,13.00
2018-01-24T14:11:15.052Z,13.00
2018-01-24T14:13:43.895Z,13.10
2018-01-24T14:16:11.949Z,13.00
2018-01-24T14:18:40.010Z,13.10
2018-01-24T14:21:08.264Z,13.10
2018-01-24T14:23:36.316Z,13.20
2018-01-24T14:26:04.360Z,13.10
2018-01-24T14:28:33.227Z,13.10
2018-01-24T14:31:01.258Z,13.00
2018-01-24T14:33:30.056Z,13.10
2018-01-24T14:35:58.868Z,13.00
2018-01-24T14:38:26.912Z,12.90
2018-01-24T14:40:54.972Z,12.90
2018-01-24T14:43:23.218Z,13.00
2018-01-24T14:45:51.318Z,12.90
2018-01-24T14:48:19.696Z,12.90
2018-01-24T14:50:47.669Z,12.80
2018-01-24T14:53:15.704Z,12.80
2018-01-24T14:55:43.744Z,12.80
2018-01-24T14:58:12.596Z,12.60
2018-01-24T15:00:40.636Z,12.60
2018-01-24T15:03:09.436Z,12.50
2018-01-24T15:05:38.252Z,12.50
2018-01-24T15:08:06.307Z,12.50
2018-01-24T15:10:34.353Z,12.50
2018-01-24T15:13:02.410Z,12.40
2018-01-24T15:15:30.470Z,12.30
2018-01-24T15:17:59.282Z,12.20
2018-01-24T15:20:27.330Z,12.10
2018-01-24T15:22:55.399Z,12.10
2018-01-24T15:25:23.434Z,12.00
2018-01-24T15:27:51.489Z,11.90
2018-01-24T15:30:19.532Z,11.80
2018-01-24T15:32:47.598Z,11.70
2018-01-24T15:35:15.639Z,11.60
2018-01-24T15:37:43.684Z,11.60
2018-01-24T15:40:11.808Z,11.50
2018-01-24T15:42:39.853Z,11.50
2018-01-24T15:45:07.889Z,11.40
2018-01-24T15:47:36.728Z,11.30
2018-01-24T15:50:04.791Z,11.20
2018-01-24T15:52:33.005Z,11.10
2018-01-24T15:55:01.130Z,11.00
2018-01-24T15:57:29.867Z,10.90
2018-01-24T15:59:58.652Z,10.90
2018-01-24T16:02:26.711Z,10.90
2018-01-24T16:04:54.760Z,10.90
2018-01-24T16:07:22.792Z,10.80
2018-01-24T16:09:51.617Z,10.60
2018-01-24T16:12:19.667Z,10.50
2018-01-24T16:14:47.721Z,10.50
2018-01-24T16:17:15.756Z,10.50
2018-01-24T16:19:44.590Z,10.40
2018-01-24T16:22:12.653Z,10.30
2018-01-24T16:24:40.709Z,10.40
2018-01-24T16:27:08.734Z,10.20
2018-01-24T16:29:37.040Z,10.20
2018-01-24T16:32:05.101Z,10.10
2018-01-24T16:34:34.086Z,10.00
2018-01-24T16:37:02.920Z,9.80
2018-01-24T16:39:30.982Z,9.80
2018-01-24T16:41:59.781Z,9.80
2018-01-24T16:44:28.597Z,9.70
2018-01-24T16:46:56.629Z,9.60
2018-01-24T16:49:24.753Z,9.60
2018-01-24T16:51:53.570Z,9.60
2018-01-24T16:54:21.604Z,9.50
2018-01-24T16:56:49.656Z,9.40
2018-01-24T16:59:17.702Z,9.40
2018-01-24T17:01:46.503Z,9.20
2018-01-24T17:04:15.326Z,9.20
2018-01-24T17:06:43.374Z,9.10
2018-01-24T17:09:11.401Z,9.10
2018-01-24T17:11:39.457Z,9.10
2018-01-24T17:14:08.255Z,9.10
2018-01-24T17:16:37.049Z,9.10
2018-01-24T17:19:05.868Z,9.10
2018-01-24T17:21:33.913Z,9.10
2018-01-24T17:24:01.954Z,9.10
2018-01-24T17:26:30.070Z,9.00
2018-01-24T17:28:58.117Z,8.90
2018-01-24T17:31:26.144Z,8.90
2018-01-24T17:33:54.193Z,8.80
2018-01-24T17:36:22.252Z,8.80
2018-01-24T17:38:51.052Z,8.90
2018-01-24T17:41:19.096Z,8.80
2018-01-24T17:43:47.144Z,8.80
2018-01-24T17:46:15.177Z,8.80
2018-01-24T17:48:43.223Z,8.70
2018-01-24T17:51:11.268Z,8.70
2018-01-24T17:53:40.064Z,8.50
2018-01-24T17:56:08.948Z,8.50
2018-01-24T17:58:36.992Z,8.40
2018-01-24T18:01:05.045Z,8.40
2018-01-24T18:03:33.084Z,8.30
2018-01-24T18:06:01.921Z,8.30
2018-01-24T18:08:30.767Z,8.30
2018-01-24T18:10:58.816Z,8.30
2018-01-24T18:13:26.849Z,8.20
2018-01-24T18:15:54.913Z,8.30
2018-01-24T18:18:22.955Z,8.40
2018-01-24T18:20:51.751Z,8.30
2018-01-24T18:23:20.588Z,8.30
2018-01-24T18:25:48.649Z,8.30
2018-01-24T18:28:16.684Z,8.30
2018-01-24T18:30:44.746Z,8.20
2018-01-24T18:33:12.805Z,8.30
2018-01-24T18:35:41.604Z,8.10
2018-01-24T18:38:10.421Z,8.20
2018-01-24T18:40:38.482Z,8.20
2018-01-24T18:43:07.413Z,8.20
2018-01-24T18:45:35.530Z,8.20
2018-01-24T18:48:03.719Z,8.20
2018-01-24T18:50:31.761Z,8.10
2018-01-24T18:53:00.582Z,8.10
2018-01-24T18:55:28.604Z,8.10
2018-01-24T18:57:56.825Z,8.10
2018-01-24T19:00:24.884Z,8.10
2018-01-24T19:02:52.928Z,8.10
2018-01-24T19:05:20.969Z,8.20
2018-01-24T19:07:49.784Z,8.10
2018-01-24T19:10:17.844Z,8.00
2018-01-24T19:12:46.631Z,8.00
2018-01-24T19:15:14.676Z,7.90
2018-01-24T19:17:42.721Z,8.00
2018-01-24T19:20:11.528Z,8.00
2018-01-24T19:22:39.572Z,8.00
2018-01-24T19:25:07.668Z,8.00
2018-01-24T19:27:35.684Z,7.90
2018-01-24T19:30:03.744Z,7.90
2018-01-24T19:32:32.641Z,7.80
2018-01-24T19:35:00.695Z,7.80
2018-01-24T19:37:28.752Z,7.90
2018-01-24T19:39:56.787Z,7.90
2018-01-24T19:42:24.852Z,7.90
2018-01-24T19:44:52.892Z,7.90
2018-01-24T19:47:20.932Z,7.90
2018-01-24T19:49:49.020Z,7.90
2018-01-24T19:52:17.076Z,7.90
2018-01-24T19:54:45.104Z,7.80
2018-01-24T19:57:13.937Z,7.70
2018-01-24T19:59:41.993Z,7.70
2018-01-24T20:02:10.800Z,7.60
2018-01-24T20:04:39.617Z,7.60
2018-01-24T20:07:07.712Z,7.50
2018-01-24T20:09:35.785Z,7.60
2018-01-24T20:12:03.833Z,7.60
2018-01-24T20:14:31.920Z,7.60
2018-01-24T20:17:00.109Z,7.60
2018-01-24T20:19:28.201Z,7.50
2018-01-24T20:21:57.025Z,7.50
2018-01-24T20:24:25.064Z,7.50
2018-01-24T20:26:53.116Z,7.50
2018-01-24T20:29:21.152Z,7.50
2018-01-24T20:31:49.960Z,7.60
2018-01-24T20:34:18.764Z,7.60
2018-01-24T20:36:48.460Z,7.60
2018-01-24T20:39:18.010Z,7.60
2018-01-24T20:41:46.824Z,7.70
2018-01-24T20:44:14.884Z,7.70
2018-01-24T20:46:42.907Z,7.70
2018-01-24T20:49:10.956Z,7.70
2018-01-24T20:51:39.768Z,7.70
2018-01-24T20:54:08.597Z,7.70
2018-01-24T20:56:36.632Z,7.60
2018-01-24T20:59:04.740Z,7.60
2018-01-24T21:01:33.543Z,7.60
2018-01-24T21:04:02.376Z,7.70
2018-01-24T21:06:30.457Z,7.60
2018-01-24T21:08:58.494Z,7.60
2018-01-24T21:11:26.544Z,7.50
2018-01-24T21:13:54.588Z,7.50
2018-01-24T21:16:22.615Z,7.50
2018-01-24T21:18:50.677Z,7.40
2018-01-24T21:21:18.736Z,7.40
2018-01-24T21:23:46.768Z,7.50
2018-01-24T21:26:14.831Z,7.50
2018-01-24T21:28:54.559Z,7.50
2018-01-24T21:31:34.437Z,7.60
2018-01-24T21:34:14.434Z,7.60
2018-01-24T21:36:54.256Z,7.60
2018-01-24T21:39:22.328Z,7.60
2018-01-24T21:41:50.380Z,7.60
2018-01-24T21:44:18.420Z,7.70
2018-01-24T21:46:46.517Z,7.70
2018-01-24T21:49:14.547Z,7.70
2018-01-24T21:51:42.912Z,7.70
2018-01-24T21:54:11.036Z,7.60
2018-01-24T21:56:40.069Z,7.70
2018-01-24T21:59:08.256Z,7.70
2018-01-24T22:01:36.597Z,7.70
2018-01-24T22:04:04.746Z,7.70
2018-01-24T22:06:32.800Z,7.60
2018-01-24T22:09:00.843Z,7.70
2018-01-24T22:11:28.904Z,7.70
2018-01-24T22:13:56.936Z,7.70
2018-01-24T22:16:26.749Z,7.70
2018-01-24T22:18:54.859Z,7.60
2018-01-24T22:21:22.916Z,7.70
2018-01-24T22:23:50.969Z,7.70
2018-01-24T22:26:19.004Z,7.70
2018-01-24T22:28:47.076Z,7.70
2018-01-24T22:31:15.893Z,7.70
2018-01-24T22:33:43.951Z,7.60
2018-01-24T22:36:12.004Z,7.70
2018-01-24T22:38:40.054Z,7.70
2018-01-24T22:41:08.095Z,7.70
2018-01-24T22:43:37.648Z,7.60
2018-01-24T22:46:05.721Z,7.60
2018-01-24T22:48:34.662Z,7.70
2018-01-24T22:51:02.729Z,7.60
2018-01-24T22:53:30.784Z,7.70
2018-01-24T22:55:59.609Z,7.70
2018-01-24T22:58:28.414Z,7.60
2018-01-24T23:00:56.453Z,7.60
2018-01-24T23:03:24.505Z,7.60
2018-01-24T23:05:52.544Z,7.60
2018-01-24T23:08:21.332Z,7.60
2018-01-24T23:10:49.385Z,7.60
2018-01-24T23:13:17.435Z,7.60
2018-01-24T23:15:45.459Z,7.50
2018-01-24T23:18:13.509Z,7.40
2018-01-24T23:20:41.569Z,7.40
2018-01-24T23:23:10.369Z,7.40
2018-01-24T23:25:39.198Z,7.40
2018-01-24T23:28:07.229Z,7.40
2018-01-24T23:30:35.284Z,7.40
2018-01-24T23:33:03.337Z,7.30
2018-01-24T23:35:31.376Z,7.40
2018-01-24T23:37:59.434Z,7.30
2018-01-24T23:40:27.559Z,7.30
2018-01-24T23:42:55.552Z,7.30
2018-01-24T23:45:24.377Z,7.30
2018-01-24T23:47:52.449Z,7.20
2018-01-24T23:50:21.240Z,7.30
2018-01-24T23:52:50.057Z,7.30
2018-01-24T23:55:18.114Z,7.20
2018-01-24T23:57:46.132Z,7.30
